Time;durP1;ratioP1;P1;durP2;ratioP2;P2;SDS_P1;SDS_P2;PMS_P1;PMS_P2;Temp;Humidity;BMP_temperature;BMP_pressure;BME280_temperature;BME280_humidity;BME280_pressure;Samples;Min_cycle;Max_cycle;Signal;HPM_P1;HPM_P2
2023/04/03 00:00:56;;;;;;;0.80;0.80;;;;;;;;;;5047029;28;20214;-86
2023/04/03 00:03:22;;;;;;;0.90;0.90;;;;;;;;;;5057244;28;20203;-85
2023/04/03 00:05:48;;;;;;;0.90;0.90;;;;;;;;;;5054484;28;20643;-83
2023/04/03 00:08:15;;;;;;;0.87;0.87;;;;;;;;;;5038327;28;20176;-84
2023/04/03 00:10:41;;;;;;;0.80;0.80;;;;;;;;;;5037862;28;20183;-85
2023/04/03 00:13:07;;;;;;;0.80;0.80;;;;;;;;;;5037320;28;20196;-84
2023/04/03 00:15:34;;;;;;;0.90;0.90;;;;;;;;;;5037389;28;20559;-85
2023/04/03 00:18:00;;;;;;;0.83;0.83;;;;;;;;;;5037705;28;20204;-84
2023/04/03 00:20:27;;;;;;;0.80;0.80;;;;;;;;;;5037924;28;20186;-83
2023/04/03 00:22:53;;;;;;;0.90;0.90;;;;;;;;;;5037057;28;20690;-85
2023/04/03 00:25:19;;;;;;;0.70;0.70;;;;;;;;;;5037653;28;20182;-83
2023/04/03 00:27:45;;;;;;;0.80;0.80;;;;;;;;;;5037872;28;20179;-84
2023/04/03 00:30:13;;;;;;;0.90;0.90;;;;;;;;;;5037749;28;20603;-85
2023/04/03 00:32:39;;;;;;;0.83;0.83;;;;;;;;;;5037300;28;20172;-84
2023/04/03 00:35:05;;;;;;;0.70;0.70;;;;;;;;;;5037711;28;20196;-84
2023/04/03 00:37:31;;;;;;;0.90;0.90;;;;;;;;;;5037530;28;20266;-84
2023/04/03 00:39:57;;;;;;;0.90;0.90;;;;;;;;;;5037684;28;20268;-83
2023/04/03 00:42:23;;;;;;;0.90;0.90;;;;;;;;;;5037147;28;20183;-83
2023/04/03 00:44:49;;;;;;;0.87;0.87;;;;;;;;;;5037459;28;20204;-84
2023/04/03 00:47:17;;;;;;;0.80;0.80;;;;;;;;;;5037815;28;20187;-85
2023/04/03 00:49:44;;;;;;;0.80;0.80;;;;;;;;;;5037613;28;20314;-83
2023/04/03 00:52:12;;;;;;;0.80;0.80;;;;;;;;;;5036714;28;20631;-85
2023/04/03 00:54:39;;;;;;;0.90;0.90;;;;;;;;;;5036771;28;20203;-84
2023/04/03 00:57:06;;;;;;;0.90;0.90;;;;;;;;;;5037620;28;20182;-85
2023/04/03 00:59:34;;;;;;;0.80;0.80;;;;;;;;;;5037237;28;20765;-84
2023/04/03 01:02:00;;;;;;;0.80;0.80;;;;;;;;;;5037952;28;20206;-84
2023/04/03 01:04:31;;;;;;;0.80;0.80;;;;;;;;;;5035310;28;20216;-85
2023/04/03 01:06:59;;;;;;;0.80;0.80;;;;;;;;;;5037276;28;20199;-83
2023/04/03 01:09:26;;;;;;;0.90;0.90;;;;;;;;;;5035709;28;20662;-84
2023/04/03 01:11:52;;;;;;;0.90;0.90;;;;;;;;;;5037176;28;20172;-84
2023/04/03 01:14:17;;;;;;;1.00;1.00;;;;;;;;;;5037143;28;20734;-84
2023/04/03 01:16:44;;;;;;;0.80;0.80;;;;;;;;;;5037198;28;20172;-85
2023/04/03 01:19:13;;;;;;;0.80;0.80;;;;;;;;;;5036863;28;20211;-85
2023/04/03 01:21:42;;;;;;;0.80;0.80;;;;;;;;;;5037630;28;20206;-84
2023/04/03 01:24:12;;;;;;;0.90;0.90;;;;;;;;;;5036775;28;20662;-83
2023/04/03 01:26:39;;;;;;;0.70;0.70;;;;;;;;;;5037258;28;20195;-84
2023/04/03 01:29:05;;;;;;;0.83;0.83;;;;;;;;;;5039180;28;20168;-83
2023/04/03 01:31:45;;;;;;;0.90;0.90;;;;;;;;;;5052154;28;20183;-83
2023/04/03 01:34:11;;;;;;;0.80;0.80;;;;;;;;;;5044668;28;20283;-83
2023/04/03 01:36:37;;;;;;;0.83;0.83;;;;;;;;;;5040018;28;20188;-84
2023/04/03 01:39:03;;;;;;;0.70;0.70;;;;;;;;;;5039449;28;20286;-85
2023/04/03 01:41:29;;;;;;;0.80;0.80;;;;;;;;;;5040098;28;20191;-85
2023/04/03 01:43:55;;;;;;;0.80;0.80;;;;;;;;;;5038403;28;20356;-84
2023/04/03 01:46:21;;;;;;;0.80;0.80;;;;;;;;;;5039767;28;20279;-85
2023/04/03 01:48:49;;;;;;;0.90;0.90;;;;;;;;;;5039306;28;20172;-85
2023/04/03 01:51:15;;;;;;;0.83;0.83;;;;;;;;;;5039362;28;20180;-86
2023/04/03 01:53:41;;;;;;;0.80;0.80;;;;;;;;;;5037939;28;20191;-85
2023/04/03 01:56:07;;;;;;;0.80;0.80;;;;;;;;;;5038537;28;20179;-85
2023/04/03 01:58:33;;;;;;;0.90;0.90;;;;;;;;;;5038413;28;20269;-85
2023/04/03 02:00:59;;;;;;;0.80;0.80;;;;;;;;;;5037841;28;20183;-85
2023/04/03 02:03:25;;;;;;;0.70;0.70;;;;;;;;;;5036843;28;20624;-85
2023/04/03 02:05:51;;;;;;;0.80;0.80;;;;;;;;;;5038157;28;20200;-85
2023/04/03 02:08:20;;;;;;;0.90;0.90;;;;;;;;;;5038170;28;20708;-84
2023/04/03 02:10:49;;;;;;;0.90;0.90;;;;;;;;;;5038529;28;20259;-84
2023/04/03 02:13:16;;;;;;;0.80;0.80;;;;;;;;;;5038098;28;20596;-84
2023/04/03 02:15:42;;;;;;;0.80;0.80;;;;;;;;;;5038051;28;20799;-85
2023/04/03 02:18:08;;;;;;;0.80;0.80;;;;;;;;;;5038591;28;20219;-84
2023/04/03 02:20:34;;;;;;;0.80;0.80;;;;;;;;;;5038806;28;20168;-85
2023/04/03 02:23:01;;;;;;;1.00;1.00;;;;;;;;;;5037540;28;20211;-85
2023/04/03 02:25:27;;;;;;;0.90;0.90;;;;;;;;;;5038206;28;20176;-85
2023/04/03 02:27:53;;;;;;;0.70;0.70;;;;;;;;;;5038299;28;20587;-84
2023/04/03 02:30:19;;;;;;;0.80;0.80;;;;;;;;;;5037479;28;20256;-85
2023/04/03 02:32:45;;;;;;;0.87;0.87;;;;;;;;;;5037587;28;20523;-85
2023/04/03 02:35:11;;;;;;;0.80;0.80;;;;;;;;;;5039706;28;20184;-85
2023/04/03 02:37:37;;;;;;;0.90;0.90;;;;;;;;;;5050350;28;20175;-84
2023/04/03 02:40:04;;;;;;;0.90;0.90;;;;;;;;;;5049971;28;20188;-85
2023/04/03 02:42:30;;;;;;;0.70;0.70;;;;;;;;;;5049890;28;20187;-85
2023/04/03 02:44:56;;;;;;;0.90;0.90;;;;;;;;;;5050116;28;20219;-85
2023/04/03 02:47:22;;;;;;;0.87;0.87;;;;;;;;;;5050673;28;20175;-83
2023/04/03 02:49:48;;;;;;;0.90;0.90;;;;;;;;;;5050756;28;20205;-84
2023/04/03 02:52:14;;;;;;;0.80;0.80;;;;;;;;;;5050032;28;20176;-86
2023/04/03 02:54:40;;;;;;;0.80;0.80;;;;;;;;;;5050211;28;20199;-84
2023/04/03 02:57:10;;;;;;;0.80;0.80;;;;;;;;;;5047240;28;20454;-84
2023/04/03 02:59:40;;;;;;;0.80;0.80;;;;;;;;;;5036449;28;20215;-85
2023/04/03 03:02:07;;;;;;;0.90;0.90;;;;;;;;;;5036317;28;20180;-84
2023/04/03 03:04:33;;;;;;;0.80;0.80;;;;;;;;;;5036116;28;20207;-84
2023/04/03 03:06:59;;;;;;;0.77;0.77;;;;;;;;;;5035740;28;20265;-84
2023/04/03 03:09:26;;;;;;;0.90;0.90;;;;;;;;;;5035915;28;20172;-84
2023/04/03 03:11:52;;;;;;;0.90;0.90;;;;;;;;;;5035957;28;20176;-85
2023/04/03 03:14:18;;;;;;;0.80;0.80;;;;;;;;;;5035928;28;20200;-84
2023/04/03 03:16:44;;;;;;;0.90;0.90;;;;;;;;;;5040373;28;20180;-83
2023/04/03 03:19:10;;;;;;;0.90;0.90;;;;;;;;;;5040070;28;20306;-85
2023/04/03 03:21:36;;;;;;;0.80;0.80;;;;;;;;;;5040525;28;20237;-83
2023/04/03 03:24:02;;;;;;;0.80;0.80;;;;;;;;;;5047286;28;20733;-85
2023/04/03 03:26:28;;;;;;;0.90;0.90;;;;;;;;;;5058421;28;20630;-83
2023/04/03 03:28:54;;;;;;;0.80;0.80;;;;;;;;;;5057373;28;20179;-83
2023/04/03 03:31:20;;;;;;;0.80;0.80;;;;;;;;;;5057119;28;20187;-83
2023/04/03 03:33:46;;;;;;;0.90;0.90;;;;;;;;;;5056384;28;20670;-83
2023/04/03 03:36:12;;;;;;;0.80;0.80;;;;;;;;;;5057564;28;20187;-84
2023/04/03 03:38:39;;;;;;;0.90;0.90;;;;;;;;;;5058219;28;20264;-83
2023/04/03 03:41:05;;;;;;;0.90;0.90;;;;;;;;;;5057612;28;20167;-83
2023/04/03 03:43:31;;;;;;;1.00;1.00;;;;;;;;;;5058643;28;20226;-84
2023/04/03 03:45:57;;;;;;;0.80;0.80;;;;;;;;;;5065432;28;20167;-85
2023/04/03 03:48:23;;;;;;;0.90;0.90;;;;;;;;;;5078593;28;20175;-84
2023/04/03 03:50:49;;;;;;;0.90;0.90;;;;;;;;;;5080087;28;20159;-87
2023/04/03 03:53:16;;;;;;;0.90;0.90;;;;;;;;;;5079711;28;20184;-83
2023/04/03 03:55:42;;;;;;;1.00;1.00;;;;;;;;;;5079584;28;20167;-87
2023/04/03 03:58:08;;;;;;;0.90;0.90;;;;;;;;;;5079887;28;20211;-85
2023/04/03 04:00:34;;;;;;;0.90;0.90;;;;;;;;;;5080055;28;20167;-86
2023/04/03 04:03:00;;;;;;;0.87;0.87;;;;;;;;;;5079315;28;20187;-86
2023/04/03 04:05:26;;;;;;;0.90;0.90;;;;;;;;;;5079221;28;20179;-86
2023/04/03 04:07:52;;;;;;;0.90;0.90;;;;;;;;;;5079256;28;20156;-87
2023/04/03 04:10:18;;;;;;;0.90;0.90;;;;;;;;;;5076090;28;20250;-83
2023/04/03 04:12:44;;;;;;;0.80;0.80;;;;;;;;;;5076720;28;20206;-86
2023/04/03 04:15:11;;;;;;;0.90;0.90;;;;;;;;;;5077249;28;20171;-84
2023/04/03 04:17:37;;;;;;;0.80;0.80;;;;;;;;;;5076891;28;20174;-85
2023/04/03 04:20:04;;;;;;;0.80;0.80;;;;;;;;;;5065685;28;20180;-84
2023/04/03 04:22:31;;;;;;;0.80;0.80;;;;;;;;;;5060374;28;20252;-84
2023/04/03 04:24:57;;;;;;;0.90;0.90;;;;;;;;;;5060738;28;20233;-84
2023/04/03 04:27:23;;;;;;;0.90;0.90;;;;;;;;;;5061502;28;20183;-84
2023/04/03 04:29:48;;;;;;;0.90;0.90;;;;;;;;;;5061728;28;20172;-83
2023/04/03 04:32:14;;;;;;;0.90;0.90;;;;;;;;;;5061119;28;20661;-85
2023/04/03 04:34:40;;;;;;;0.90;0.90;;;;;;;;;;5061099;28;20315;-83
2023/04/03 04:37:06;;;;;;;0.90;0.90;;;;;;;;;;5061050;28;20532;-83
2023/04/03 04:39:32;;;;;;;0.80;0.80;;;;;;;;;;5052269;28;20218;-86
2023/04/03 04:41:58;;;;;;;0.90;0.90;;;;;;;;;;5059671;28;20179;-84
2023/04/03 04:44:25;;;;;;;0.80;0.80;;;;;;;;;;5042988;28;20199;-83
2023/04/03 04:46:50;;;;;;;0.90;0.90;;;;;;;;;;5040040;28;20255;-85
2023/04/03 04:49:16;;;;;;;0.80;0.80;;;;;;;;;;5039485;28;20242;-85
2023/04/03 04:51:42;;;;;;;0.87;0.87;;;;;;;;;;5039770;28;20184;-85
2023/04/03 04:54:08;;;;;;;0.90;0.90;;;;;;;;;;5039225;28;20290;-84
2023/04/03 04:56:34;;;;;;;0.83;0.83;;;;;;;;;;5039490;28;20635;-85
2023/04/03 04:59:00;;;;;;;0.70;0.70;;;;;;;;;;5040390;28;20219;-84
2023/04/03 05:01:26;;;;;;;0.80;0.80;;;;;;;;;;5040030;28;20207;-86
2023/04/03 05:03:53;;;;;;;0.80;0.80;;;;;;;;;;5038963;28;20674;-86
2023/04/03 05:06:19;;;;;;;0.70;0.70;;;;;;;;;;5039195;28;20576;-87
2023/04/03 05:08:45;;;;;;;0.70;0.70;;;;;;;;;;5038602;28;20183;-86
2023/04/03 05:11:11;;;;;;;0.80;0.80;;;;;;;;;;5039486;28;20223;-86
2023/04/03 05:13:37;;;;;;;0.90;0.90;;;;;;;;;;5038230;28;20196;-86
2023/04/03 05:16:03;;;;;;;0.90;0.90;;;;;;;;;;5042303;28;20183;-85
2023/04/03 05:18:29;;;;;;;0.90;0.90;;;;;;;;;;5048416;28;20226;-85
2023/04/03 05:20:55;;;;;;;0.83;0.83;;;;;;;;;;5047131;28;20183;-83
2023/04/03 05:23:21;;;;;;;0.80;0.80;;;;;;;;;;5048078;28;20199;-83
2023/04/03 05:25:48;;;;;;;0.90;0.90;;;;;;;;;;5047745;28;20294;-83
2023/04/03 05:28:14;;;;;;;0.80;0.80;;;;;;;;;;5046983;28;20191;-82
2023/04/03 05:30:40;;;;;;;0.90;0.90;;;;;;;;;;5047584;28;20180;-83
2023/04/03 05:33:06;;;;;;;0.90;0.90;;;;;;;;;;5048220;28;20238;-82
2023/04/03 05:35:32;;;;;;;0.90;0.90;;;;;;;;;;5049674;28;20240;-85
2023/04/03 05:37:58;;;;;;;0.80;0.80;;;;;;;;;;5048892;28;20222;-83
2023/04/03 05:40:25;;;;;;;0.70;0.70;;;;;;;;;;5053209;28;20175;-82
2023/04/03 05:42:53;;;;;;;0.70;0.70;;;;;;;;;;5056672;28;20200;-80
2023/04/03 05:45:19;;;;;;;0.90;0.90;;;;;;;;;;5057695;28;20267;-84
2023/04/03 05:47:45;;;;;;;0.80;0.80;;;;;;;;;;5063231;28;20172;-83
2023/04/03 05:50:11;;;;;;;0.87;0.87;;;;;;;;;;5062841;28;20194;-83
2023/04/03 05:52:38;;;;;;;0.80;0.80;;;;;;;;;;5063602;28;20171;-84
2023/04/03 05:55:05;;;;;;;0.90;0.90;;;;;;;;;;5060725;28;20186;-82
2023/04/03 05:57:31;;;;;;;0.80;0.80;;;;;;;;;;5058364;28;20175;-83
2023/04/03 05:59:57;;;;;;;0.80;0.80;;;;;;;;;;5057506;28;20561;-83
2023/04/03 06:02:25;;;;;;;0.80;0.80;;;;;;;;;;5056246;28;20179;-83
2023/04/03 06:04:51;;;;;;;0.80;0.80;;;;;;;;;;5094072;22;20226;-88
2023/04/03 06:07:20;;;;;;;0.70;0.70;;;;;;;;;;5056353;28;20175;-87
2023/04/03 06:09:47;;;;;;;0.90;0.90;;;;;;;;;;5056347;28;20179;-88
2023/04/03 06:12:13;;;;;;;0.80;0.80;;;;;;;;;;5056380;28;20183;-86
2023/04/03 06:14:38;;;;;;;0.80;0.80;;;;;;;;;;5056437;28;20193;-87
2023/04/03 06:17:05;;;;;;;0.83;0.83;;;;;;;;;;5056527;28;20198;-86
2023/04/03 06:19:33;;;;;;;0.90;0.90;;;;;;;;;;5055084;28;21152;-86
2023/04/03 06:21:59;;;;;;;0.80;0.80;;;;;;;;;;5054967;28;20167;-84
2023/04/03 06:24:25;;;;;;;0.90;0.90;;;;;;;;;;5055198;28;20203;-84
2023/04/03 06:26:52;;;;;;;0.70;0.70;;;;;;;;;;5055250;28;20198;-84
2023/04/03 06:29:19;;;;;;;0.80;0.80;;;;;;;;;;5055147;28;20182;-84
2023/04/03 06:31:45;;;;;;;0.80;0.80;;;;;;;;;;5055474;28;20183;-85
2023/04/03 06:34:11;;;;;;;0.80;0.80;;;;;;;;;;5054293;28;20207;-84
2023/04/03 06:36:38;;;;;;;0.73;0.73;;;;;;;;;;5038092;28;20329;-85
2023/04/03 06:39:05;;;;;;;0.80;0.80;;;;;;;;;;5055255;28;20666;-84
2023/04/03 06:41:31;;;;;;;0.80;0.80;;;;;;;;;;5055462;28;20179;-85
2023/04/03 06:43:57;;;;;;;0.80;0.80;;;;;;;;;;5053435;28;20199;-85
2023/04/03 06:46:25;;;;;;;0.80;0.80;;;;;;;;;;5054112;28;20178;-85
2023/04/03 06:48:51;;;;;;;0.80;0.80;;;;;;;;;;5054729;28;20226;-85
2023/04/03 06:51:22;;;;;;;0.80;0.80;;;;;;;;;;5059646;28;20186;-84
2023/04/03 06:53:48;;;;;;;0.80;0.80;;;;;;;;;;5059186;28;20278;-86
2023/04/03 06:56:15;;;;;;;0.90;0.90;;;;;;;;;;5058389;28;20259;-85
2023/04/03 06:58:41;;;;;;;0.80;0.80;;;;;;;;;;5059435;28;20210;-85
2023/04/03 07:01:09;;;;;;;0.90;0.90;;;;;;;;;;5059078;28;20168;-84
2023/04/03 07:03:35;;;;;;;0.70;0.70;;;;;;;;;;5058587;28;20681;-84
2023/04/03 07:06:01;;;;;;;0.90;0.90;;;;;;;;;;5059843;28;20273;-85
2023/04/03 07:08:27;;;;;;;0.70;0.70;;;;;;;;;;5060792;28;20195;-85
2023/04/03 07:10:53;;;;;;;0.80;0.80;;;;;;;;;;5060751;28;20250;-85
2023/04/03 07:13:19;;;;;;;0.80;0.80;;;;;;;;;;5060055;28;20195;-85
2023/04/03 07:15:45;;;;;;;0.90;0.90;;;;;;;;;;5060687;28;20286;-85
2023/04/03 07:18:11;;;;;;;0.90;0.90;;;;;;;;;;5061677;28;20215;-85
2023/04/03 07:20:38;;;;;;;0.77;0.77;;;;;;;;;;5061597;28;20175;-84
2023/04/03 07:23:04;;;;;;;0.87;0.87;;;;;;;;;;5042077;28;20712;-85
2023/04/03 07:25:31;;;;;;;0.70;0.70;;;;;;;;;;5062175;28;20175;-85
2023/04/03 07:27:57;;;;;;;0.80;0.80;;;;;;;;;;5044147;28;20243;-85
2023/04/03 07:30:23;;;;;;;0.80;0.80;;;;;;;;;;5068031;28;20278;-86
2023/04/03 07:32:50;;;;;;;0.70;0.70;;;;;;;;;;5077351;28;20186;-85
2023/04/03 07:35:17;;;;;;;0.70;0.70;;;;;;;;;;5077600;28;20175;-85
2023/04/03 07:37:43;;;;;;;0.70;0.70;;;;;;;;;;5073805;28;20175;-85
2023/04/03 07:40:09;;;;;;;0.77;0.77;;;;;;;;;;5060088;28;20183;-85
2023/04/03 07:42:36;;;;;;;0.80;0.80;;;;;;;;;;5058253;28;20606;-84
2023/04/03 07:45:02;;;;;;;0.70;0.70;;;;;;;;;;5057793;28;20179;-85
2023/04/03 07:47:28;;;;;;;0.80;0.80;;;;;;;;;;5058012;28;20202;-84
2023/04/03 07:49:54;;;;;;;0.70;0.70;;;;;;;;;;5074936;28;20235;-87
2023/04/03 07:52:20;;;;;;;0.80;0.80;;;;;;;;;;5078796;28;20159;-86
2023/04/03 07:54:46;;;;;;;0.80;0.80;;;;;;;;;;5079201;28;20191;-85
2023/04/03 07:57:12;;;;;;;0.70;0.70;;;;;;;;;;5065357;28;20600;-85
2023/04/03 07:59:39;;;;;;;0.60;0.60;;;;;;;;;;5056921;28;20215;-85
2023/04/03 08:02:05;;;;;;;0.70;0.70;;;;;;;;;;5056653;28;20224;-85
2023/04/03 08:04:31;;;;;;;0.67;0.67;;;;;;;;;;5057553;28;20223;-84
2023/04/03 08:06:57;;;;;;;0.60;0.60;;;;;;;;;;5057307;28;20183;-86
2023/04/03 08:09:23;;;;;;;0.60;0.60;;;;;;;;;;5057191;28;20229;-86
2023/04/03 08:11:52;;;;;;;0.70;0.70;;;;;;;;;;5057854;28;20191;-85
2023/04/03 08:14:18;;;;;;;0.70;0.70;;;;;;;;;;5057510;28;20218;-86
2023/04/03 08:16:46;;;;;;;0.60;0.60;;;;;;;;;;5058430;28;20197;-86
2023/04/03 08:19:13;;;;;;;0.70;0.70;;;;;;;;;;5058225;28;20219;-85
2023/04/03 08:21:41;;;;;;;0.60;0.60;;;;;;;;;;5056610;28;20182;-86
2023/04/03 08:24:07;;;;;;;0.70;0.70;;;;;;;;;;5044574;28;20191;-86
2023/04/03 08:26:33;;;;;;;0.60;0.60;;;;;;;;;;5048581;28;20554;-86
2023/04/03 08:28:59;;;;;;;0.70;0.70;;;;;;;;;;5051351;28;20171;-87
2023/04/03 08:31:25;;;;;;;0.70;0.70;;;;;;;;;;5057209;28;20276;-85
2023/04/03 08:33:51;;;;;;;0.70;0.70;;;;;;;;;;5042177;28;20202;-86
2023/04/03 08:36:21;;;;;;;0.70;0.70;;;;;;;;;;5052351;28;20248;-86
2023/04/03 08:38:47;;;;;;;0.70;0.70;;;;;;;;;;5058942;28;20270;-87
2023/04/03 08:41:19;;;;;;;0.70;0.70;;;;;;;;;;5071973;28;20179;-84
2023/04/03 08:44:04;;;;;;;0.67;0.67;;;;;;;;;;5056202;28;20203;-84
2023/04/03 08:46:53;;;;;;;0.70;0.70;;;;;;;;;;5065828;28;20191;-84
2023/04/03 08:49:23;;;;;;;0.70;0.70;;;;;;;;;;5069614;28;20179;-84
2023/04/03 08:51:50;;;;;;;0.70;0.70;;;;;;;;;;5056529;28;20178;-85
2023/04/03 08:54:29;;;;;;;0.80;0.80;;;;;;;;;;5050966;28;20210;-85
2023/04/03 08:56:55;;;;;;;0.70;0.70;;;;;;;;;;5043316;28;20187;-86
2023/04/03 08:59:27;;;;;;;0.73;0.73;;;;;;;;;;5052114;28;20206;-85
2023/04/03 09:01:53;;;;;;;0.80;0.80;;;;;;;;;;5039716;28;20240;-84
2023/04/03 09:04:20;;;;;;;0.80;0.80;;;;;;;;;;5049430;28;20681;-85
2023/04/03 09:06:59;;;;;;;0.80;0.80;;;;;;;;;;5046477;28;20519;-85
2023/04/03 09:09:32;;;;;;;0.60;0.60;;;;;;;;;;5055413;28;20370;-84
2023/04/03 09:11:58;;;;;;;0.70;0.70;;;;;;;;;;5040411;28;20267;-84
2023/04/03 09:14:24;;;;;;;0.80;0.80;;;;;;;;;;5046975;28;20323;-87
2023/04/03 09:17:00;;;;;;;0.80;0.80;;;;;;;;;;5047735;28;20207;-85
2023/04/03 09:19:32;;;;;;;0.60;0.60;;;;;;;;;;5075492;28;20246;-86
2023/04/03 09:22:04;;;;;;;0.80;0.80;;;;;;;;;;5051667;28;20633;-83
2023/04/03 09:24:31;;;;;;;0.70;0.70;;;;;;;;;;5042939;28;20706;-84
2023/04/03 09:27:16;;;;;;;0.60;0.60;;;;;;;;;;5055313;28;20518;-85
2023/04/03 09:29:44;;;;;;;0.67;0.67;;;;;;;;;;5056192;28;20544;-86
2023/04/03 09:32:22;;;;;;;0.70;0.70;;;;;;;;;;5076636;28;20170;-89
2023/04/03 09:34:50;;;;;;;0.70;0.70;;;;;;;;;;5065585;28;20179;-88
2023/04/03 09:37:37;;;;;;;0.70;0.70;;;;;;;;;;5054769;28;20175;-88
2023/04/03 09:40:04;;;;;;;0.60;0.60;;;;;;;;;;5059261;28;20289;-88
2023/04/03 09:42:31;;;;;;;0.60;0.60;;;;;;;;;;5091537;28;20170;-88
2023/04/03 09:45:01;;;;;;;0.60;0.60;;;;;;;;;;5075631;28;20206;-87
2023/04/03 09:47:33;;;;;;;0.60;0.60;;;;;;;;;;5051823;28;20646;-86
2023/04/03 09:50:14;;;;;;;0.60;0.60;;;;;;;;;;5056349;28;20186;-85
2023/04/03 09:52:41;;;;;;;0.63;0.63;;;;;;;;;;5052041;28;20182;-86
2023/04/03 09:55:17;;;;;;;0.60;0.60;;;;;;;;;;5057357;28;20179;-86
2023/04/03 09:57:43;;;;;;;0.60;0.60;;;;;;;;;;5038195;28;20172;-86
2023/04/03 10:00:21;;;;;;;0.80;0.80;;;;;;;;;;5043215;28;20267;-86
2023/04/03 10:02:51;;;;;;;0.60;0.60;;;;;;;;;;5059729;28;20167;-84
2023/04/03 10:05:28;;;;;;;0.73;0.73;;;;;;;;;;5058395;28;20211;-86
2023/04/03 10:08:24;;;;;;;0.77;0.77;;;;;;;;;;5056974;28;20187;-87
2023/04/03 10:11:06;;;;;;;0.80;0.80;;;;;;;;;;5040539;28;20270;-85
2023/04/03 10:13:32;;;;;;;0.67;0.67;;;;;;;;;;5067018;28;20236;-86
2023/04/03 10:16:07;;;;;;;0.70;0.70;;;;;;;;;;5042085;28;20175;-86
2023/04/03 10:18:54;;;;;;;0.70;0.70;;;;;;;;;;5055783;28;20210;-85
2023/04/03 10:21:29;;;;;;;0.90;0.90;;;;;;;;;;5039566;28;20164;-86
2023/04/03 10:23:59;;;;;;;0.70;0.70;;;;;;;;;;5038684;28;20194;-86
2023/04/03 10:26:32;;;;;;;0.60;0.60;;;;;;;;;;5046548;28;20262;-85
2023/04/03 10:29:01;;;;;;;0.60;0.60;;;;;;;;;;5027760;28;20179;-85
2023/04/03 10:31:37;;;;;;;0.60;0.60;;;;;;;;;;5038800;28;20526;-85
2023/04/03 10:34:12;;;;;;;0.60;0.60;;;;;;;;;;5049914;28;20278;-86
2023/04/03 10:36:42;;;;;;;0.77;0.77;;;;;;;;;;5045378;28;20179;-85
2023/04/03 10:39:17;;;;;;;0.77;0.77;;;;;;;;;;5097506;22;20232;-85
2023/04/03 10:42:03;;;;;;;0.70;0.70;;;;;;;;;;5073576;28;20714;-85
2023/04/03 10:44:29;;;;;;;0.80;0.80;;;;;;;;;;5073076;28;20798;-84
2023/04/03 10:47:00;;;;;;;0.60;0.60;;;;;;;;;;5073129;28;20198;-86
2023/04/03 10:49:29;;;;;;;0.70;0.70;;;;;;;;;;5073800;28;20265;-85
2023/04/03 10:52:04;;;;;;;0.70;0.70;;;;;;;;;;5073241;28;20202;-86
2023/04/03 10:54:47;;;;;;;0.63;0.63;;;;;;;;;;5075129;28;20208;-83
2023/04/03 10:57:13;;;;;;;0.73;0.73;;;;;;;;;;5075203;28;20171;-83
2023/04/03 10:59:39;;;;;;;0.70;0.70;;;;;;;;;;5075526;28;20218;-83
2023/04/03 11:02:24;;;;;;;0.73;0.73;;;;;;;;;;5076705;28;20257;-83
2023/04/03 11:05:13;;;;;;;0.67;0.67;;;;;;;;;;5076324;28;20190;-84
2023/04/03 11:07:41;;;;;;;0.77;0.77;;;;;;;;;;5067397;28;20670;-82
2023/04/03 11:10:31;;;;;;;0.70;0.70;;;;;;;;;;5075576;28;20281;-83
2023/04/03 11:12:59;;;;;;;0.60;0.60;;;;;;;;;;5075940;28;20194;-83
2023/04/03 11:15:25;;;;;;;0.70;0.70;;;;;;;;;;5074374;28;20181;-82
2023/04/03 11:18:01;;;;;;;0.70;0.70;;;;;;;;;;5088196;28;20205;-82
2023/04/03 11:20:32;;;;;;;0.60;0.60;;;;;;;;;;5096336;28;20193;-82
2023/04/03 11:23:01;;;;;;;0.70;0.70;;;;;;;;;;5089515;28;20245;-83
2023/04/03 11:25:30;;;;;;;0.70;0.70;;;;;;;;;;5078182;28;20178;-83
2023/04/03 11:27:56;;;;;;;0.80;0.80;;;;;;;;;;5078317;28;20183;-82
2023/04/03 11:30:28;;;;;;;0.70;0.70;;;;;;;;;;5077596;28;20171;-83
2023/04/03 11:32:57;;;;;;;0.77;0.77;;;;;;;;;;5075557;28;20213;-83
2023/04/03 11:35:24;;;;;;;0.70;0.70;;;;;;;;;;5073967;28;20216;-84
2023/04/03 11:37:54;;;;;;;0.70;0.70;;;;;;;;;;5068172;28;20953;-83
2023/04/03 11:40:22;;;;;;;0.70;0.70;;;;;;;;;;5093601;28;20214;-83
2023/04/03 11:43:09;;;;;;;0.70;0.70;;;;;;;;;;5069381;28;20175;-85
2023/04/03 11:45:36;;;;;;;0.70;0.70;;;;;;;;;;5057792;28;20187;-84
2023/04/03 11:48:11;;;;;;;0.70;0.70;;;;;;;;;;5077405;28;20229;-84
2023/04/03 11:50:37;;;;;;;0.70;0.70;;;;;;;;;;5081139;28;20182;-85
2023/04/03 11:53:07;;;;;;;0.80;0.80;;;;;;;;;;5081406;28;20244;-84
2023/04/03 11:55:32;;;;;;;0.70;0.70;;;;;;;;;;5079736;28;20223;-84
2023/04/03 11:57:58;;;;;;;0.70;0.70;;;;;;;;;;5081403;28;20190;-84
2023/04/03 12:00:46;;;;;;;0.70;0.70;;;;;;;;;;5081232;28;20185;-84
2023/04/03 12:03:24;;;;;;;0.80;0.80;;;;;;;;;;5081070;28;20194;-84
2023/04/03 12:05:55;;;;;;;0.70;0.70;;;;;;;;;;5080465;28;20223;-84
2023/04/03 12:08:24;;;;;;;0.70;0.70;;;;;;;;;;5081008;28;20194;-83
2023/04/03 12:11:09;;;;;;;0.70;0.70;;;;;;;;;;5080879;28;20182;-83
2023/04/03 12:13:40;;;;;;;0.70;0.70;;;;;;;;;;5078158;28;20222;-83
2023/04/03 12:16:06;;;;;;;0.70;0.70;;;;;;;;;;5080100;28;20265;-84
2023/04/03 12:18:32;;;;;;;0.70;0.70;;;;;;;;;;5079797;28;20207;-83
2023/04/03 12:20:59;;;;;;;0.70;0.70;;;;;;;;;;5079539;28;20174;-84
2023/04/03 12:23:26;;;;;;;0.60;0.60;;;;;;;;;;5079218;28;20843;-84
2023/04/03 12:26:00;;;;;;;0.70;0.70;;;;;;;;;;5069560;28;20179;-83
2023/04/03 12:28:27;;;;;;;0.63;0.63;;;;;;;;;;5077772;28;20187;-84
2023/04/03 12:30:54;;;;;;;0.70;0.70;;;;;;;;;;5070998;28;20585;-83
2023/04/03 12:33:40;;;;;;;0.60;0.60;;;;;;;;;;5096759;28;20202;-83
2023/04/03 12:36:12;;;;;;;0.70;0.70;;;;;;;;;;5078734;28;20220;-83
2023/04/03 12:38:55;;;;;;;0.70;0.70;;;;;;;;;;5065367;28;20217;-83
2023/04/03 12:41:35;;;;;;;0.60;0.60;;;;;;;;;;5079240;28;20239;-84
2023/04/03 12:44:01;;;;;;;0.70;0.70;;;;;;;;;;5085861;28;20221;-84
2023/04/03 12:46:34;;;;;;;0.70;0.70;;;;;;;;;;5079674;28;20550;-84
2023/04/03 12:49:00;;;;;;;0.70;0.70;;;;;;;;;;5068861;28;20171;-84
2023/04/03 12:51:30;;;;;;;0.60;0.60;;;;;;;;;;5073068;28;20235;-82
2023/04/03 12:54:05;;;;;;;0.70;0.70;;;;;;;;;;5094180;28;20174;-82
2023/04/03 12:56:32;;;;;;;0.60;0.60;;;;;;;;;;5081033;28;20185;-83
2023/04/03 12:59:17;;;;;;;0.70;0.70;;;;;;;;;;5097556;28;20262;-83
2023/04/03 13:01:43;;;;;;;0.77;0.77;;;;;;;;;;5098065;28;20233;-82
2023/04/03 13:04:11;;;;;;;0.70;0.70;;;;;;;;;;5094238;28;20194;-83
2023/04/03 13:06:41;;;;;;;0.70;0.70;;;;;;;;;;5078391;28;20235;-82
2023/04/03 13:09:18;;;;;;;0.77;0.77;;;;;;;;;;5085028;28;20163;-83
2023/04/03 13:11:45;;;;;;;0.60;0.60;;;;;;;;;;5078626;28;20186;-83
2023/04/03 13:14:19;;;;;;;0.67;0.67;;;;;;;;;;5077659;28;20198;-82
2023/04/03 13:17:04;;;;;;;0.60;0.60;;;;;;;;;;5072716;28;20712;-83
2023/04/03 13:19:31;;;;;;;0.60;0.60;;;;;;;;;;5059883;28;20206;-84
2023/04/03 13:22:02;;;;;;;0.60;0.60;;;;;;;;;;5059653;28;20183;-83
2023/04/03 13:24:29;;;;;;;0.60;0.60;;;;;;;;;;5058103;28;20223;-84
2023/04/03 13:26:56;;;;;;;0.70;0.70;;;;;;;;;;5057927;28;20275;-84
2023/04/03 13:29:25;;;;;;;0.70;0.70;;;;;;;;;;5058939;28;20171;-85
2023/04/03 13:31:53;;;;;;;0.70;0.70;;;;;;;;;;5058244;28;20243;-84
2023/04/03 13:34:21;;;;;;;0.70;0.70;;;;;;;;;;5058096;28;20191;-84
2023/04/03 13:36:56;;;;;;;0.70;0.70;;;;;;;;;;5057566;28;20194;-83
2023/04/03 13:39:24;;;;;;;0.70;0.70;;;;;;;;;;5057428;28;20272;-83
2023/04/03 13:41:54;;;;;;;0.70;0.70;;;;;;;;;;5058916;28;20186;-83
2023/04/03 13:44:23;;;;;;;0.70;0.70;;;;;;;;;;5057567;28;20205;-84
2023/04/03 13:46:53;;;;;;;0.73;0.73;;;;;;;;;;5059613;28;20175;-84
2023/04/03 13:49:21;;;;;;;0.80;0.80;;;;;;;;;;5060220;28;20179;-85
2023/04/03 13:51:47;;;;;;;0.70;0.70;;;;;;;;;;5059035;28;20176;-85
2023/04/03 13:54:24;;;;;;;0.70;0.70;;;;;;;;;;5058435;28;20203;-84
2023/04/03 13:56:54;;;;;;;0.60;0.60;;;;;;;;;;5058251;28;20258;-85
2023/04/03 13:59:31;;;;;;;0.60;0.60;;;;;;;;;;5056742;28;20738;-83
2023/04/03 14:02:03;;;;;;;0.70;0.70;;;;;;;;;;5057779;28;20182;-83
2023/04/03 14:04:31;;;;;;;0.70;0.70;;;;;;;;;;5056471;28;20317;-83
2023/04/03 14:06:57;;;;;;;0.60;0.60;;;;;;;;;;5057855;28;20178;-83
2023/04/03 14:09:24;;;;;;;0.70;0.70;;;;;;;;;;5056093;28;20175;-84
2023/04/03 14:11:51;;;;;;;0.70;0.70;;;;;;;;;;5055537;28;20178;-82
2023/04/03 14:14:21;;;;;;;0.60;0.60;;;;;;;;;;5056039;28;20275;-83
2023/04/03 14:16:51;;;;;;;0.63;0.63;;;;;;;;;;5056859;28;20171;-84
2023/04/03 14:19:20;;;;;;;0.70;0.70;;;;;;;;;;5057251;28;20215;-87
2023/04/03 14:21:46;;;;;;;0.73;0.73;;;;;;;;;;5058227;28;20171;-85
2023/04/03 14:24:12;;;;;;;0.60;0.60;;;;;;;;;;5056761;28;20670;-86
2023/04/03 14:26:38;;;;;;;0.63;0.63;;;;;;;;;;5058352;28;20257;-84
2023/04/03 14:29:05;;;;;;;0.60;0.60;;;;;;;;;;5056897;28;20584;-85
2023/04/03 14:31:31;;;;;;;0.70;0.70;;;;;;;;;;5057109;28;20237;-85
2023/04/03 14:33:57;;;;;;;0.70;0.70;;;;;;;;;;5056688;28;20199;-85
2023/04/03 14:36:25;;;;;;;0.67;0.67;;;;;;;;;;5057033;28;20258;-85
2023/04/03 14:38:52;;;;;;;0.73;0.73;;;;;;;;;;5056766;28;20253;-85
2023/04/03 14:41:20;;;;;;;0.60;0.60;;;;;;;;;;5057023;28;20171;-86
2023/04/03 14:43:47;;;;;;;0.60;0.60;;;;;;;;;;5066664;28;20190;-87
2023/04/03 14:46:45;;;;;;;0.67;0.67;;;;;;;;;;5076915;28;20190;-86
2023/04/03 14:49:14;;;;;;;0.70;0.70;;;;;;;;;;5037325;28;20171;-86
2023/04/03 14:51:40;;;;;;;0.80;0.80;;;;;;;;;;5076300;28;20173;-88